createdAt,value
2023-09-09T07:34:20.610Z,100904.09
2023-09-09T07:37:28.961Z,100904.09
2023-09-09T07:40:32.299Z,100912.22
2023-09-09T07:43:35.857Z,100912.81
2023-09-09T07:46:39.312Z,100908.72
2023-09-09T07:49:42.454Z,100911.13
2023-09-09T07:52:45.521Z,100904.81
2023-09-09T07:55:52.612Z,100900.84
2023-09-09T07:58:55.271Z,100907.16
2023-09-09T08:01:58.677Z,100899.16
2023-09-09T08:05:01.754Z,100901.25
2023-09-09T08:08:06.665Z,100908.75
2023-09-09T08:11:09.738Z,100909.88
2023-09-09T08:14:14.706Z,100910.59
2023-09-09T08:17:20.399Z,100911.97
2023-09-09T08:20:23.430Z,100908.69
2023-09-09T08:23:26.501Z,100906.28
2023-09-09T08:26:30.131Z,100908.19
2023-09-09T08:29:32.982Z,100912.22
2023-09-09T08:32:35.953Z,100904.94
2023-09-09T08:35:41.356Z,100899.34
2023-09-09T08:38:44.335Z,100894.13
2023-09-09T08:41:59.438Z,100898.09
2023-09-09T08:45:24.056Z,100888.25
2023-09-09T08:48:29.067Z,100893.41
2023-09-09T08:51:54.998Z,100888.59
2023-09-09T08:54:58.953Z,100891.72
2023-09-09T08:58:03.358Z,100899.09
2023-09-09T09:01:06.786Z,100893.03
2023-09-09T09:04:11.543Z,100888.56
2023-09-09T09:07:15.759Z,100891.06
2023-09-09T09:10:20.289Z,100889.91
2023-09-09T09:13:23.160Z,100890.22
2023-09-09T09:16:25.764Z,100893.19
2023-09-09T09:19:32.016Z,100890.09
2023-09-09T09:22:35.483Z,100891.00
2023-09-09T09:25:43.501Z,100886.81
2023-09-09T09:28:46.309Z,100889.22
2023-09-09T09:31:53.871Z,100876.28
2023-09-09T09:34:56.472Z,100879.16
2023-09-09T09:38:01.342Z,100871.75
2023-09-09T09:41:04.916Z,100880.00
2023-09-09T09:44:26.508Z,100870.06
2023-09-09T09:47:51.493Z,100871.91
2023-09-09T09:50:55.244Z,100873.72
